sensor_id;sensor_type;location;lat;lon;timestamp;P1;durP1;ratioP1;P2;durP2;ratioP2
71381;SDS011;60099;45.660;13.804;2022-09-17T00:01:55;0.50;;;0.50;;
71381;SDS011;60099;45.660;13.804;2022-09-17T00:04:21;1.70;;;0.50;;
71381;SDS011;60099;45.660;13.804;2022-09-17T00:06:47;1.33;;;0.50;;
71381;SDS011;60099;45.660;13.804;2022-09-17T00:09:12;0.57;;;0.50;;
71381;SDS011;60099;45.660;13.804;2022-09-17T00:11:40;0.25;;;0.25;;
71381;SDS011;60099;45.660;13.804;2022-09-17T00:14:07;0.90;;;0.40;;
71381;SDS011;60099;45.660;13.804;2022-09-17T00:16:39;0.50;;;0.50;;
71381;SDS011;60099;45.660;13.804;2022-09-17T00:19:09;1.75;;;0.35;;
71381;SDS011;60099;45.660;13.804;2022-09-17T00:21:39;0.30;;;0.30;;
71381;SDS011;60099;45.660;13.804;2022-09-17T00:24:05;0.40;;;0.40;;
71381;SDS011;60099;45.660;13.804;2022-09-17T00:26:32;1.65;;;0.45;;
71381;SDS011;60099;45.660;13.804;2022-09-17T00:29:00;0.68;;;0.40;;
71381;SDS011;60099;45.660;13.804;2022-09-17T00:31:27;0.80;;;0.52;;
71381;SDS011;60099;45.660;13.804;2022-09-17T00:33:53;1.13;;;0.60;;
71381;SDS011;60099;45.660;13.804;2022-09-17T00:36:20;0.80;;;0.30;;
71381;SDS011;60099;45.660;13.804;2022-09-17T00:38:50;0.47;;;0.40;;
71381;SDS011;60099;45.660;13.804;2022-09-17T00:41:17;1.15;;;0.70;;
71381;SDS011;60099;45.660;13.804;2022-09-17T00:43:53;0.43;;;0.40;;
71381;SDS011;60099;45.660;13.804;2022-09-17T00:46:37;0.20;;;0.20;;
71381;SDS011;60099;45.660;13.804;2022-09-17T00:49:19;0.47;;;0.40;;
71381;SDS011;60099;45.660;13.804;2022-09-17T00:54:38;0.35;;;0.35;;
71381;SDS011;60099;45.660;13.804;2022-09-17T00:57:06;0.40;;;0.35;;
71381;SDS011;60099;45.660;13.804;2022-09-17T00:59:33;0.40;;;0.40;;
71381;SDS011;60099;45.660;13.804;2022-09-17T01:01:59;0.93;;;0.38;;
71381;SDS011;60099;45.660;13.804;2022-09-17T01:04:26;0.38;;;0.38;;
71381;SDS011;60099;45.660;13.804;2022-09-17T01:09:33;0.50;;;0.40;;
71381;SDS011;60099;45.660;13.804;2022-09-17T01:24:03;1.73;;;0.50;;
71381;SDS011;60099;45.660;13.804;2022-09-17T01:26:57;0.57;;;0.40;;
71381;SDS011;60099;45.660;13.804;2022-09-17T01:35:07;0.57;;;0.47;;
71381;SDS011;60099;45.660;13.804;2022-09-17T01:40:29;0.90;;;0.60;;
71381;SDS011;60099;45.660;13.804;2022-09-17T01:43:06;1.73;;;0.70;;
71381;SDS011;60099;45.660;13.804;2022-09-17T01:48:41;0.40;;;0.40;;
71381;SDS011;60099;45.660;13.804;2022-09-17T01:51:12;0.90;;;0.70;;
71381;SDS011;60099;45.660;13.804;2022-09-17T01:53:47;0.73;;;0.73;;
71381;SDS011;60099;45.660;13.804;2022-09-17T01:56:24;0.80;;;0.80;;
71381;SDS011;60099;45.660;13.804;2022-09-17T01:58:58;1.35;;;0.70;;
71381;SDS011;60099;45.660;13.804;2022-09-17T02:01:28;1.25;;;0.60;;
71381;SDS011;60099;45.660;13.804;2022-09-17T02:04:02;1.10;;;0.60;;
71381;SDS011;60099;45.660;13.804;2022-09-17T02:06:36;0.85;;;0.57;;
71381;SDS011;60099;45.660;13.804;2022-09-17T02:09:11;1.25;;;0.65;;
71381;SDS011;60099;45.660;13.804;2022-09-17T02:11:41;0.60;;;0.60;;
71381;SDS011;60099;45.660;13.804;2022-09-17T02:14:20;0.60;;;0.45;;
71381;SDS011;60099;45.660;13.804;2022-09-17T02:16:59;0.88;;;0.63;;
71381;SDS011;60099;45.660;13.804;2022-09-17T02:19:30;0.43;;;0.43;;
71381;SDS011;60099;45.660;13.804;2022-09-17T02:22:08;0.40;;;0.40;;
71381;SDS011;60099;45.660;13.804;2022-09-17T02:24:51;0.50;;;0.50;;
71381;SDS011;60099;45.660;13.804;2022-09-17T02:27:26;0.45;;;0.32;;
71381;SDS011;60099;45.660;13.804;2022-09-17T02:30:01;1.00;;;0.50;;
71381;SDS011;60099;45.660;13.804;2022-09-17T02:32:27;1.27;;;0.40;;
71381;SDS011;60099;45.660;13.804;2022-09-17T02:34:53;1.38;;;0.40;;
71381;SDS011;60099;45.660;13.804;2022-09-17T02:37:18;0.82;;;0.40;;
71381;SDS011;60099;45.660;13.804;2022-09-17T02:39:44;0.40;;;0.40;;
71381;SDS011;60099;45.660;13.804;2022-09-17T02:45:13;0.88;;;0.38;;
71381;SDS011;60099;45.660;13.804;2022-09-17T02:59:34;0.50;;;0.50;;
71381;SDS011;60099;45.660;13.804;2022-09-17T03:02:26;1.30;;;0.60;;
71381;SDS011;60099;45.660;13.804;2022-09-17T03:04:58;0.88;;;0.85;;
71381;SDS011;60099;45.660;13.804;2022-09-17T03:07:25;0.68;;;0.65;;
71381;SDS011;60099;45.660;13.804;2022-09-17T03:09:53;1.40;;;0.88;;
71381;SDS011;60099;45.660;13.804;2022-09-17T03:12:18;0.80;;;0.80;;
71381;SDS011;60099;45.660;13.804;2022-09-17T03:14:44;1.58;;;0.90;;
71381;SDS011;60099;45.660;13.804;2022-09-17T03:17:10;2.00;;;1.88;;
71381;SDS011;60099;45.660;13.804;2022-09-17T03:19:38;1.25;;;0.85;;
71381;SDS011;60099;45.660;13.804;2022-09-17T03:22:04;1.17;;;1.02;;
71381;SDS011;60099;45.660;13.804;2022-09-17T03:24:30;1.50;;;0.98;;
71381;SDS011;60099;45.660;13.804;2022-09-17T03:26:56;1.25;;;0.93;;
71381;SDS011;60099;45.660;13.804;2022-09-17T03:29:22;1.75;;;1.00;;
71381;SDS011;60099;45.660;13.804;2022-09-17T03:31:48;1.35;;;1.10;;
71381;SDS011;60099;45.660;13.804;2022-09-17T03:34:13;1.65;;;1.10;;
71381;SDS011;60099;45.660;13.804;2022-09-17T03:36:39;0.98;;;0.90;;
71381;SDS011;60099;45.660;13.804;2022-09-17T03:39:05;1.52;;;1.02;;
71381;SDS011;60099;45.660;13.804;2022-09-17T03:41:31;1.20;;;0.93;;
71381;SDS011;60099;45.660;13.804;2022-09-17T03:43:56;3.17;;;1.40;;
71381;SDS011;60099;45.660;13.804;2022-09-17T03:46:22;1.10;;;1.08;;
71381;SDS011;60099;45.660;13.804;2022-09-17T03:48:48;2.13;;;1.30;;
71381;SDS011;60099;45.660;13.804;2022-09-17T03:51:13;1.88;;;1.35;;
71381;SDS011;60099;45.660;13.804;2022-09-17T03:53:39;1.98;;;1.48;;
71381;SDS011;60099;45.660;13.804;2022-09-17T03:56:05;2.35;;;1.40;;
71381;SDS011;60099;45.660;13.804;2022-09-17T03:58:32;1.83;;;1.40;;
71381;SDS011;60099;45.660;13.804;2022-09-17T04:01:06;2.60;;;1.58;;
71381;SDS011;60099;45.660;13.804;2022-09-17T04:03:32;2.22;;;1.60;;
71381;SDS011;60099;45.660;13.804;2022-09-17T04:05:58;2.25;;;1.40;;
71381;SDS011;60099;45.660;13.804;2022-09-17T04:08:23;2.10;;;1.50;;
71381;SDS011;60099;45.660;13.804;2022-09-17T04:10:49;1.95;;;1.40;;
71381;SDS011;60099;45.660;13.804;2022-09-17T04:13:18;2.03;;;1.25;;
71381;SDS011;60099;45.660;13.804;2022-09-17T04:15:44;1.60;;;1.10;;
71381;SDS011;60099;45.660;13.804;2022-09-17T04:18:11;2.50;;;1.13;;
71381;SDS011;60099;45.660;13.804;2022-09-17T04:20:37;2.10;;;1.30;;
71381;SDS011;60099;45.660;13.804;2022-09-17T04:23:03;1.60;;;1.00;;
71381;SDS011;60099;45.660;13.804;2022-09-17T04:25:31;1.33;;;1.00;;
71381;SDS011;60099;45.660;13.804;2022-09-17T04:27:57;2.47;;;1.30;;
71381;SDS011;60099;45.660;13.804;2022-09-17T04:30:23;1.20;;;0.90;;
71381;SDS011;60099;45.660;13.804;2022-09-17T04:32:48;1.70;;;1.23;;
71381;SDS011;60099;45.660;13.804;2022-09-17T04:35:14;1.88;;;1.15;;
71381;SDS011;60099;45.660;13.804;2022-09-17T04:37:40;1.60;;;1.20;;
71381;SDS011;60099;45.660;13.804;2022-09-17T04:40:06;2.65;;;1.20;;
71381;SDS011;60099;45.660;13.804;2022-09-17T04:42:32;1.52;;;1.15;;
71381;SDS011;60099;45.660;13.804;2022-09-17T04:44:58;1.33;;;1.10;;
71381;SDS011;60099;45.660;13.804;2022-09-17T04:47:24;3.08;;;1.27;;
71381;SDS011;60099;45.660;13.804;2022-09-17T04:49:49;1.77;;;1.15;;
71381;SDS011;60099;45.660;13.804;2022-09-17T04:52:16;1.13;;;1.02;;
71381;SDS011;60099;45.660;13.804;2022-09-17T04:54:42;1.95;;;1.30;;
71381;SDS011;60099;45.660;13.804;2022-09-17T04:57:07;1.75;;;1.40;;
71381;SDS011;60099;45.660;13.804;2022-09-17T04:59:33;1.40;;;1.30;;
71381;SDS011;60099;45.660;13.804;2022-09-17T05:01:59;2.22;;;1.50;;
71381;SDS011;60099;45.660;13.804;2022-09-17T05:04:24;1.65;;;1.30;;
71381;SDS011;60099;45.660;13.804;2022-09-17T05:06:50;2.33;;;1.65;;
71381;SDS011;60099;45.660;13.804;2022-09-17T05:09:16;3.05;;;1.63;;
71381;SDS011;60099;45.660;13.804;2022-09-17T05:11:42;2.30;;;1.50;;
71381;SDS011;60099;45.660;13.804;2022-09-17T05:14:08;2.05;;;1.30;;
71381;SDS011;60099;45.660;13.804;2022-09-17T05:16:33;2.60;;;1.33;;
71381;SDS011;60099;45.660;13.804;2022-09-17T05:18:59;2.83;;;1.42;;
71381;SDS011;60099;45.660;13.804;2022-09-17T05:21:25;1.50;;;1.35;;
71381;SDS011;60099;45.660;13.804;2022-09-17T05:23:50;3.22;;;1.45;;
71381;SDS011;60099;45.660;13.804;2022-09-17T05:26:16;2.08;;;1.60;;
71381;SDS011;60099;45.660;13.804;2022-09-17T05:28:42;1.50;;;1.20;;
71381;SDS011;60099;45.660;13.804;2022-09-17T05:31:07;1.75;;;1.35;;
71381;SDS011;60099;45.660;13.804;2022-09-17T05:33:33;1.67;;;1.33;;
71381;SDS011;60099;45.660;13.804;2022-09-17T05:35:59;1.80;;;1.30;;
71381;SDS011;60099;45.660;13.804;2022-09-17T05:38:26;2.20;;;1.40;;
71381;SDS011;60099;45.660;13.804;2022-09-17T05:40:51;1.30;;;1.20;;
71381;SDS011;60099;45.660;13.804;2022-09-17T05:43:17;1.60;;;1.25;;
71381;SDS011;60099;45.660;13.804;2022-09-17T05:45:43;1.25;;;0.82;;
71381;SDS011;60099;45.660;13.804;2022-09-17T05:48:10;1.90;;;1.30;;
71381;SDS011;60099;45.660;13.804;2022-09-17T05:50:37;1.95;;;1.40;;
71381;SDS011;60099;45.660;13.804;2022-09-17T05:53:04;2.15;;;1.10;;
71381;SDS011;60099;45.660;13.804;2022-09-17T05:55:31;2.00;;;1.38;;
71381;SDS011;60099;45.660;13.804;2022-09-17T05:57:59;1.52;;;1.00;;
71381;SDS011;60099;45.660;13.804;2022-09-17T06:00:31;1.23;;;1.10;;
71381;SDS011;60099;45.660;13.804;2022-09-17T06:03:03;1.40;;;1.30;;
71381;SDS011;60099;45.660;13.804;2022-09-17T06:05:29;1.83;;;1.30;;
71381;SDS011;60099;45.660;13.804;2022-09-17T06:07:55;1.10;;;1.00;;
71381;SDS011;60099;45.660;13.804;2022-09-17T06:10:20;4.10;;;1.60;;
71381;SDS011;60099;45.660;13.804;2022-09-17T06:12:46;1.42;;;1.10;;
71381;SDS011;60099;45.660;13.804;2022-09-17T06:15:12;1.60;;;1.30;;
71381;SDS011;60099;45.660;13.804;2022-09-17T06:17:39;1.65;;;1.25;;
71381;SDS011;60099;45.660;13.804;2022-09-17T06:20:05;2.47;;;1.30;;
71381;SDS011;60099;45.660;13.804;2022-09-17T06:22:31;2.28;;;1.30;;
71381;SDS011;60099;45.660;13.804;2022-09-17T06:24:57;2.45;;;1.40;;
71381;SDS011;60099;45.660;13.804;2022-09-17T06:27:34;2.28;;;1.50;;
71381;SDS011;60099;45.660;13.804;2022-09-17T06:30:00;2.08;;;1.25;;
71381;SDS011;60099;45.660;13.804;2022-09-17T06:32:26;1.40;;;1.30;;
71381;SDS011;60099;45.660;13.804;2022-09-17T06:34:53;2.55;;;1.45;;
71381;SDS011;60099;45.660;13.804;2022-09-17T06:37:20;1.23;;;1.13;;
71381;SDS011;60099;45.660;13.804;2022-09-17T06:39:51;1.20;;;1.10;;
71381;SDS011;60099;45.660;13.804;2022-09-17T06:42:18;2.03;;;1.30;;
71381;SDS011;60099;45.660;13.804;2022-09-17T06:44:43;2.10;;;1.23;;
71381;SDS011;60099;45.660;13.804;2022-09-17T06:47:09;1.95;;;1.17;;
71381;SDS011;60099;45.660;13.804;2022-09-17T06:49:35;1.52;;;1.13;;
71381;SDS011;60099;45.660;13.804;2022-09-17T06:52:01;1.80;;;1.05;;
71381;SDS011;60099;45.660;13.804;2022-09-17T06:54:28;1.85;;;1.40;;
71381;SDS011;60099;45.660;13.804;2022-09-17T06:56:53;1.73;;;1.10;;
71381;SDS011;60099;45.660;13.804;2022-09-17T06:59:20;4.20;;;1.60;;
71381;SDS011;60099;45.660;13.804;2022-09-17T07:01:46;1.42;;;1.23;;
71381;SDS011;60099;45.660;13.804;2022-09-17T07:04:13;2.55;;;1.42;;
71381;SDS011;60099;45.660;13.804;2022-09-17T07:06:38;1.95;;;1.25;;
71381;SDS011;60099;45.660;13.804;2022-09-17T07:09:04;1.33;;;1.13;;
71381;SDS011;60099;45.660;13.804;2022-09-17T07:11:31;1.30;;;1.20;;
71381;SDS011;60099;45.660;13.804;2022-09-17T07:13:57;3.15;;;1.50;;
71381;SDS011;60099;45.660;13.804;2022-09-17T07:16:29;2.88;;;1.65;;
71381;SDS011;60099;45.660;13.804;2022-09-17T07:18:57;2.20;;;1.58;;
71381;SDS011;60099;45.660;13.804;2022-09-17T07:21:22;1.98;;;1.48;;
71381;SDS011;60099;45.660;13.804;2022-09-17T07:23:49;1.85;;;1.35;;
71381;SDS011;60099;45.660;13.804;2022-09-17T07:26:15;1.80;;;1.25;;
71381;SDS011;60099;45.660;13.804;2022-09-17T07:28:41;1.30;;;1.17;;
71381;SDS011;60099;45.660;13.804;2022-09-17T07:31:08;1.20;;;1.10;;
71381;SDS011;60099;45.660;13.804;2022-09-17T07:33:35;1.42;;;1.10;;
71381;SDS011;60099;45.660;13.804;2022-09-17T07:36:03;1.67;;;1.30;;
71381;SDS011;60099;45.660;13.804;2022-09-17T07:38:41;1.30;;;1.20;;
71381;SDS011;60099;45.660;13.804;2022-09-17T07:41:14;1.40;;;1.20;;
71381;SDS011;60099;45.660;13.804;2022-09-17T07:43:41;1.75;;;1.40;;
71381;SDS011;60099;45.660;13.804;2022-09-17T07:46:15;1.65;;;1.15;;
71381;SDS011;60099;45.660;13.804;2022-09-17T07:48:42;1.90;;;1.20;;
71381;SDS011;60099;45.660;13.804;2022-09-17T07:51:13;1.05;;;0.82;;
71381;SDS011;60099;45.660;13.804;2022-09-17T07:53:40;2.38;;;0.80;;
71381;SDS011;60099;45.660;13.804;2022-09-17T07:56:06;0.63;;;0.50;;
71381;SDS011;60099;45.660;13.804;2022-09-17T07:58:33;1.27;;;0.70;;
71381;SDS011;60099;45.660;13.804;2022-09-17T08:01:07;2.35;;;1.10;;
71381;SDS011;60099;45.660;13.804;2022-09-17T08:03:39;0.73;;;0.45;;
71381;SDS011;60099;45.660;13.804;2022-09-17T08:06:15;0.98;;;0.47;;
71381;SDS011;60099;45.660;13.804;2022-09-17T08:08:45;0.50;;;0.50;;
71381;SDS011;60099;45.660;13.804;2022-09-17T08:11:12;1.40;;;0.60;;
71381;SDS011;60099;45.660;13.804;2022-09-17T08:13:40;0.70;;;0.60;;
71381;SDS011;60099;45.660;13.804;2022-09-17T08:16:07;0.80;;;0.50;;
71381;SDS011;60099;45.660;13.804;2022-09-17T08:18:37;1.00;;;0.60;;
71381;SDS011;60099;45.660;13.804;2022-09-17T08:21:04;0.95;;;0.70;;
71381;SDS011;60099;45.660;13.804;2022-09-17T08:23:33;0.77;;;0.57;;
71381;SDS011;60099;45.660;13.804;2022-09-17T08:26:00;1.65;;;0.80;;
71381;SDS011;60099;45.660;13.804;2022-09-17T08:28:27;0.63;;;0.60;;
71381;SDS011;60099;45.660;13.804;2022-09-17T08:30:59;1.25;;;0.88;;
71381;SDS011;60099;45.660;13.804;2022-09-17T08:33:35;1.30;;;0.63;;
71381;SDS011;60099;45.660;13.804;2022-09-17T08:36:03;0.50;;;0.50;;
71381;SDS011;60099;45.660;13.804;2022-09-17T08:38:32;1.30;;;0.63;;
71381;SDS011;60099;45.660;13.804;2022-09-17T08:46:23;0.90;;;0.90;;
71381;SDS011;60099;45.660;13.804;2022-09-17T08:54:44;1.17;;;0.68;;
71381;SDS011;60099;45.660;13.804;2022-09-17T08:59:55;1.05;;;0.60;;
71381;SDS011;60099;45.660;13.804;2022-09-17T09:08:32;0.95;;;0.57;;
71381;SDS011;60099;45.660;13.804;2022-09-17T09:11:03;0.77;;;0.77;;
71381;SDS011;60099;45.660;13.804;2022-09-17T09:13:38;0.70;;;0.70;;
71381;SDS011;60099;45.660;13.804;2022-09-17T09:16:14;1.20;;;0.63;;
71381;SDS011;60099;45.660;13.804;2022-09-17T09:18:43;1.60;;;0.90;;
71381;SDS011;60099;45.660;13.804;2022-09-17T09:35:28;1.00;;;0.75;;
71381;SDS011;60099;45.660;13.804;2022-09-17T09:38:05;0.60;;;0.60;;
71381;SDS011;60099;45.660;13.804;2022-09-17T09:40:51;1.90;;;0.90;;
71381;SDS011;60099;45.660;13.804;2022-09-17T09:43:22;0.75;;;0.63;;
71381;SDS011;60099;45.660;13.804;2022-09-17T09:48:19;0.95;;;0.80;;
71381;SDS011;60099;45.660;13.804;2022-09-17T09:58:59;0.93;;;0.80;;
71381;SDS011;60099;45.660;13.804;2022-09-17T10:01:26;0.80;;;0.70;;
71381;SDS011;60099;45.660;13.804;2022-09-17T10:03:53;2.03;;;0.90;;
71381;SDS011;60099;45.660;13.804;2022-09-17T10:06:22;1.92;;;0.93;;
71381;SDS011;60099;45.660;13.804;2022-09-17T10:11:21;1.10;;;0.63;;
71381;SDS011;60099;45.660;13.804;2022-09-17T10:13:48;0.57;;;0.57;;
71381;SDS011;60099;45.660;13.804;2022-09-17T10:16:22;1.02;;;0.80;;
71381;SDS011;60099;45.660;13.804;2022-09-17T10:23:58;0.75;;;0.75;;
71381;SDS011;60099;45.660;13.804;2022-09-17T10:26:30;0.70;;;0.70;;
71381;SDS011;60099;45.660;13.804;2022-09-17T10:28:59;1.70;;;1.00;;
71381;SDS011;60099;45.660;13.804;2022-09-17T10:31:25;1.20;;;0.80;;
71381;SDS011;60099;45.660;13.804;2022-09-17T10:44:23;0.77;;;0.77;;
71381;SDS011;60099;45.660;13.804;2022-09-17T10:46:51;1.00;;;0.63;;
71381;SDS011;60099;45.660;13.804;2022-09-17T10:49:33;0.40;;;0.40;;
71381;SDS011;60099;45.660;13.804;2022-09-17T10:52:10;0.77;;;0.60;;
71381;SDS011;60099;45.660;13.804;2022-09-17T11:08:42;1.13;;;0.70;;
71381;SDS011;60099;45.660;13.804;2022-09-17T11:25:23;1.05;;;0.80;;
71381;SDS011;60099;45.660;13.804;2022-09-17T11:39:43;1.08;;;0.80;;
71381;SDS011;60099;45.660;13.804;2022-09-17T11:42:23;1.00;;;0.88;;
71381;SDS011;60099;45.660;13.804;2022-09-17T11:44:57;1.45;;;0.98;;
71381;SDS011;60099;45.660;13.804;2022-09-17T11:47:38;1.20;;;0.82;;
71381;SDS011;60099;45.660;13.804;2022-09-17T11:55:32;1.23;;;0.80;;
71381;SDS011;60099;45.660;13.804;2022-09-17T12:04:25;0.93;;;0.80;;
71381;SDS011;60099;45.660;13.804;2022-09-17T12:09:43;0.88;;;0.68;;
71381;SDS011;60099;45.660;13.804;2022-09-17T12:12:19;1.13;;;0.80;;
71381;SDS011;60099;45.660;13.804;2022-09-17T12:14:59;0.88;;;0.77;;
71381;SDS011;60099;45.660;13.804;2022-09-17T12:17:42;1.00;;;0.80;;
71381;SDS011;60099;45.660;13.804;2022-09-17T12:20:18;1.08;;;0.88;;
71381;SDS011;60099;45.660;13.804;2022-09-17T12:23:02;1.15;;;1.00;;
71381;SDS011;60099;45.660;13.804;2022-09-17T12:25:37;1.52;;;0.95;;
71381;SDS011;60099;45.660;13.804;2022-09-17T12:42:19;1.60;;;0.98;;
71381;SDS011;60099;45.660;13.804;2022-09-17T12:45:13;0.63;;;0.63;;
71381;SDS011;60099;45.660;13.804;2022-09-17T12:48:18;1.05;;;0.60;;
71381;SDS011;60099;45.660;13.804;2022-09-17T12:50:59;0.93;;;0.85;;
71381;SDS011;60099;45.660;13.804;2022-09-17T12:53:34;1.27;;;0.82;;
71381;SDS011;60099;45.660;13.804;2022-09-17T12:59:02;1.00;;;0.60;;
71381;SDS011;60099;45.660;13.804;2022-09-17T13:02:09;1.55;;;0.82;;
71381;SDS011;60099;45.660;13.804;2022-09-17T13:10:00;1.25;;;1.02;;
71381;SDS011;60099;45.660;13.804;2022-09-17T13:17:57;1.30;;;0.77;;
71381;SDS011;60099;45.660;13.804;2022-09-17T13:20:56;2.67;;;1.00;;
71381;SDS011;60099;45.660;13.804;2022-09-17T13:23:31;1.77;;;0.70;;
71381;SDS011;60099;45.660;13.804;2022-09-17T13:26:08;0.70;;;0.70;;
71381;SDS011;60099;45.660;13.804;2022-09-17T13:28:41;0.82;;;0.60;;
71381;SDS011;60099;45.660;13.804;2022-09-17T13:31:11;1.42;;;0.90;;
71381;SDS011;60099;45.660;13.804;2022-09-17T13:33:59;1.33;;;0.70;;
71381;SDS011;60099;45.660;13.804;2022-09-17T13:36:34;2.22;;;1.00;;
71381;SDS011;60099;45.660;13.804;2022-09-17T13:41:34;0.95;;;0.85;;
71381;SDS011;60099;45.660;13.804;2022-09-17T13:44:05;1.40;;;1.00;;
71381;SDS011;60099;45.660;13.804;2022-09-17T13:46:33;1.10;;;0.80;;
71381;SDS011;60099;45.660;13.804;2022-09-17T13:49:04;0.93;;;0.75;;
71381;SDS011;60099;45.660;13.804;2022-09-17T13:54:07;0.90;;;0.90;;
71381;SDS011;60099;45.660;13.804;2022-09-17T13:56:39;0.65;;;0.65;;
71381;SDS011;60099;45.660;13.804;2022-09-17T13:59:28;0.98;;;0.88;;
71381;SDS011;60099;45.660;13.804;2022-09-17T14:02:01;0.55;;;0.55;;
71381;SDS011;60099;45.660;13.804;2022-09-17T14:09:52;1.13;;;0.98;;
71381;SDS011;60099;45.660;13.804;2022-09-17T14:17:55;1.52;;;0.55;;
71381;SDS011;60099;45.660;13.804;2022-09-17T14:20:22;1.25;;;0.82;;
71381;SDS011;60099;45.660;13.804;2022-09-17T14:23:01;0.85;;;0.75;;
71381;SDS011;60099;45.660;13.804;2022-09-17T14:25:51;1.48;;;0.98;;
71381;SDS011;60099;45.660;13.804;2022-09-17T14:28:30;2.45;;;0.75;;
71381;SDS011;60099;45.660;13.804;2022-09-17T14:31:08;1.05;;;0.82;;
71381;SDS011;60099;45.660;13.804;2022-09-17T14:33:41;2.63;;;0.98;;
71381;SDS011;60099;45.660;13.804;2022-09-17T14:36:10;1.15;;;0.80;;
71381;SDS011;60099;45.660;13.804;2022-09-17T14:38:43;1.17;;;1.00;;
71381;SDS011;60099;45.660;13.804;2022-09-17T14:43:40;0.60;;;0.60;;
71381;SDS011;60099;45.660;13.804;2022-09-17T14:51:47;1.77;;;0.88;;
71381;SDS011;60099;45.660;13.804;2022-09-17T14:54:23;0.93;;;0.80;;
71381;SDS011;60099;45.660;13.804;2022-09-17T14:56:57;0.70;;;0.70;;
71381;SDS011;60099;45.660;13.804;2022-09-17T15:01:51;0.82;;;0.50;;
71381;SDS011;60099;45.660;13.804;2022-09-17T15:04:19;2.35;;;1.00;;
71381;SDS011;60099;45.660;13.804;2022-09-17T15:06:49;1.02;;;0.80;;
71381;SDS011;60099;45.660;13.804;2022-09-17T15:11:52;2.10;;;1.20;;
71381;SDS011;60099;45.660;13.804;2022-09-17T15:14:21;0.85;;;0.80;;
71381;SDS011;60099;45.660;13.804;2022-09-17T15:16:52;1.30;;;1.10;;
71381;SDS011;60099;45.660;13.804;2022-09-17T15:19:25;0.68;;;0.65;;
71381;SDS011;60099;45.660;13.804;2022-09-17T15:21:57;0.73;;;0.68;;
71381;SDS011;60099;45.660;13.804;2022-09-17T15:24:44;1.52;;;1.00;;
71381;SDS011;60099;45.660;13.804;2022-09-17T15:32:29;0.82;;;0.63;;
71381;SDS011;60099;45.660;13.804;2022-09-17T15:37:42;0.82;;;0.70;;
71381;SDS011;60099;45.660;13.804;2022-09-17T15:40:11;1.88;;;0.90;;
71381;SDS011;60099;45.660;13.804;2022-09-17T15:45:25;0.88;;;0.77;;
71381;SDS011;60099;45.660;13.804;2022-09-17T15:48:04;1.27;;;0.98;;
71381;SDS011;60099;45.660;13.804;2022-09-17T15:50:31;0.90;;;0.70;;
71381;SDS011;60099;45.660;13.804;2022-09-17T15:53:19;1.15;;;0.52;;
71381;SDS011;60099;45.660;13.804;2022-09-17T15:55:57;2.05;;;0.90;;
71381;SDS011;60099;45.660;13.804;2022-09-17T15:58:29;1.45;;;0.80;;
71381;SDS011;60099;45.660;13.804;2022-09-17T16:08:42;0.80;;;0.80;;
71381;SDS011;60099;45.660;13.804;2022-09-17T16:11:15;1.25;;;1.00;;
71381;SDS011;60099;45.660;13.804;2022-09-17T16:13:41;1.38;;;0.70;;
71381;SDS011;60099;45.660;13.804;2022-09-17T16:16:18;0.98;;;0.75;;
71381;SDS011;60099;45.660;13.804;2022-09-17T16:18:47;1.50;;;1.00;;
71381;SDS011;60099;45.660;13.804;2022-09-17T16:21:14;1.55;;;0.90;;
71381;SDS011;60099;45.660;13.804;2022-09-17T16:23:41;1.17;;;0.90;;
71381;SDS011;60099;45.660;13.804;2022-09-17T16:26:18;1.15;;;1.05;;
71381;SDS011;60099;45.660;13.804;2022-09-17T16:28:48;1.77;;;1.02;;
71381;SDS011;60099;45.660;13.804;2022-09-17T16:31:18;0.93;;;0.88;;
71381;SDS011;60099;45.660;13.804;2022-09-17T16:33:44;1.48;;;1.00;;
71381;SDS011;60099;45.660;13.804;2022-09-17T16:36:10;3.10;;;1.30;;
71381;SDS011;60099;45.660;13.804;2022-09-17T16:38:36;1.50;;;1.10;;
71381;SDS011;60099;45.660;13.804;2022-09-17T16:41:05;1.58;;;0.98;;
71381;SDS011;60099;45.660;13.804;2022-09-17T16:43:31;1.23;;;1.13;;
71381;SDS011;60099;45.660;13.804;2022-09-17T16:46:01;1.05;;;0.95;;
71381;SDS011;60099;45.660;13.804;2022-09-17T16:48:28;1.13;;;0.93;;
71381;SDS011;60099;45.660;13.804;2022-09-17T16:50:55;1.90;;;0.93;;
71381;SDS011;60099;45.660;13.804;2022-09-17T16:53:21;1.02;;;0.90;;
71381;SDS011;60099;45.660;13.804;2022-09-17T16:55:46;1.70;;;1.00;;
71381;SDS011;60099;45.660;13.804;2022-09-17T16:58:12;1.25;;;1.10;;
71381;SDS011;60099;45.660;13.804;2022-09-17T17:00:41;1.60;;;1.05;;
71381;SDS011;60099;45.660;13.804;2022-09-17T17:03:08;2.13;;;1.30;;
71381;SDS011;60099;45.660;13.804;2022-09-17T17:05:37;1.98;;;1.45;;
71381;SDS011;60099;45.660;13.804;2022-09-17T17:08:03;1.30;;;1.10;;
71381;SDS011;60099;45.660;13.804;2022-09-17T17:10:29;1.67;;;1.20;;
71381;SDS011;60099;45.660;13.804;2022-09-17T17:12:56;2.42;;;1.25;;
71381;SDS011;60099;45.660;13.804;2022-09-17T17:15:22;3.35;;;1.17;;
71381;SDS011;60099;45.660;13.804;2022-09-17T17:17:48;1.55;;;1.10;;
71381;SDS011;60099;45.660;13.804;2022-09-17T17:20:15;1.20;;;0.80;;
71381;SDS011;60099;45.660;13.804;2022-09-17T17:22:41;2.20;;;1.13;;
71381;SDS011;60099;45.660;13.804;2022-09-17T17:25:08;1.90;;;1.20;;
71381;SDS011;60099;45.660;13.804;2022-09-17T17:27:35;1.88;;;1.05;;
71381;SDS011;60099;45.660;13.804;2022-09-17T17:30:03;2.90;;;1.20;;
71381;SDS011;60099;45.660;13.804;2022-09-17T17:32:33;2.13;;;1.05;;
71381;SDS011;60099;45.660;13.804;2022-09-17T17:34:59;1.20;;;1.02;;
71381;SDS011;60099;45.660;13.804;2022-09-17T17:37:25;1.63;;;1.00;;
71381;SDS011;60099;45.660;13.804;2022-09-17T17:39:51;1.08;;;0.75;;
71381;SDS011;60099;45.660;13.804;2022-09-17T17:42:18;2.50;;;1.20;;
71381;SDS011;60099;45.660;13.804;2022-09-17T17:44:44;2.33;;;1.10;;
71381;SDS011;60099;45.660;13.804;2022-09-17T17:47:11;3.22;;;1.10;;
71381;SDS011;60099;45.660;13.804;2022-09-17T17:49:37;2.65;;;1.23;;
71381;SDS011;60099;45.660;13.804;2022-09-17T17:52:03;1.95;;;1.00;;
71381;SDS011;60099;45.660;13.804;2022-09-17T17:54:35;1.35;;;0.80;;
71381;SDS011;60099;45.660;13.804;2022-09-17T17:57:01;2.00;;;1.20;;
71381;SDS011;60099;45.660;13.804;2022-09-17T17:59:33;1.92;;;1.05;;
71381;SDS011;60099;45.660;13.804;2022-09-17T18:01:59;1.42;;;0.90;;
71381;SDS011;60099;45.660;13.804;2022-09-17T18:04:25;2.15;;;1.20;;
71381;SDS011;60099;45.660;13.804;2022-09-17T18:06:50;1.13;;;0.90;;
71381;SDS011;60099;45.660;13.804;2022-09-17T18:09:16;1.35;;;0.75;;
71381;SDS011;60099;45.660;13.804;2022-09-17T18:11:42;2.20;;;1.23;;
71381;SDS011;60099;45.660;13.804;2022-09-17T18:14:08;2.13;;;1.08;;
71381;SDS011;60099;45.660;13.804;2022-09-17T18:16:36;1.77;;;1.00;;
71381;SDS011;60099;45.660;13.804;2022-09-17T18:19:02;2.25;;;1.00;;
71381;SDS011;60099;45.660;13.804;2022-09-17T18:21:28;6.15;;;1.17;;
71381;SDS011;60099;45.660;13.804;2022-09-17T18:23:54;1.67;;;0.90;;
71381;SDS011;60099;45.660;13.804;2022-09-17T18:26:23;1.65;;;0.82;;
71381;SDS011;60099;45.660;13.804;2022-09-17T18:28:51;2.20;;;1.10;;
71381;SDS011;60099;45.660;13.804;2022-09-17T18:31:21;0.93;;;0.77;;
71381;SDS011;60099;45.660;13.804;2022-09-17T18:33:57;1.30;;;0.70;;
71381;SDS011;60099;45.660;13.804;2022-09-17T18:36:28;0.95;;;0.73;;
71381;SDS011;60099;45.660;13.804;2022-09-17T18:38:57;1.00;;;0.70;;
71381;SDS011;60099;45.660;13.804;2022-09-17T18:41:28;1.50;;;0.90;;
71381;SDS011;60099;45.660;13.804;2022-09-17T18:43:56;1.23;;;0.75;;
71381;SDS011;60099;45.660;13.804;2022-09-17T18:46:24;0.95;;;0.73;;